sensor_id;sensor_type;location;lat;lon;timestamp;P1;durP1;ratioP1;P2;durP2;ratioP2
50225;SDS011;36113;50.742;6.432;2022-11-20T00:01:37;31.63;;;19.38;;
50225;SDS011;36113;50.742;6.432;2022-11-20T00:04:02;32.63;;;20.35;;
50225;SDS011;36113;50.742;6.432;2022-11-20T00:06:28;33.55;;;19.58;;
50225;SDS011;36113;50.742;6.432;2022-11-20T00:08:57;34.28;;;20.00;;
50225;SDS011;36113;50.742;6.432;2022-11-20T00:11:25;29.63;;;19.35;;
50225;SDS011;36113;50.742;6.432;2022-11-20T00:13:53;30.70;;;19.42;;
50225;SDS011;36113;50.742;6.432;2022-11-20T00:16:22;34.75;;;20.23;;
50225;SDS011;36113;50.742;6.432;2022-11-20T00:18:49;38.08;;;19.08;;
50225;SDS011;36113;50.742;6.432;2022-11-20T00:21:15;32.65;;;19.65;;
50225;SDS011;36113;50.742;6.432;2022-11-20T00:23:43;72.57;;;33.33;;
50225;SDS011;36113;50.742;6.432;2022-11-20T00:26:10;88.73;;;65.90;;
50225;SDS011;36113;50.742;6.432;2022-11-20T00:28:37;43.25;;;23.58;;
50225;SDS011;36113;50.742;6.432;2022-11-20T00:31:03;39.25;;;21.58;;
50225;SDS011;36113;50.742;6.432;2022-11-20T00:33:34;38.33;;;20.80;;
50225;SDS011;36113;50.742;6.432;2022-11-20T00:36:01;35.75;;;20.77;;
50225;SDS011;36113;50.742;6.432;2022-11-20T00:40:56;36.78;;;21.33;;
50225;SDS011;36113;50.742;6.432;2022-11-20T00:43:22;55.58;;;27.35;;
50225;SDS011;36113;50.742;6.432;2022-11-20T00:45:47;44.90;;;22.88;;
50225;SDS011;36113;50.742;6.432;2022-11-20T00:48:13;32.45;;;19.52;;
50225;SDS011;36113;50.742;6.432;2022-11-20T00:50:38;35.60;;;20.00;;
50225;SDS011;36113;50.742;6.432;2022-11-20T00:53:04;31.40;;;18.83;;
50225;SDS011;36113;50.742;6.432;2022-11-20T00:55:29;33.55;;;19.73;;
50225;SDS011;36113;50.742;6.432;2022-11-20T00:57:54;34.05;;;20.25;;
50225;SDS011;36113;50.742;6.432;2022-11-20T01:00:20;41.22;;;22.75;;
50225;SDS011;36113;50.742;6.432;2022-11-20T01:02:45;32.58;;;19.55;;
50225;SDS011;36113;50.742;6.432;2022-11-20T01:05:10;31.60;;;19.13;;
50225;SDS011;36113;50.742;6.432;2022-11-20T01:07:35;30.35;;;18.88;;
50225;SDS011;36113;50.742;6.432;2022-11-20T01:10:01;30.75;;;18.65;;
50225;SDS011;36113;50.742;6.432;2022-11-20T01:12:26;28.63;;;16.58;;
50225;SDS011;36113;50.742;6.432;2022-11-20T01:14:51;31.75;;;18.63;;
50225;SDS011;36113;50.742;6.432;2022-11-20T01:17:16;31.52;;;18.88;;
50225;SDS011;36113;50.742;6.432;2022-11-20T01:19:42;30.77;;;18.17;;
50225;SDS011;36113;50.742;6.432;2022-11-20T01:22:07;29.17;;;17.60;;
50225;SDS011;36113;50.742;6.432;2022-11-20T01:24:32;27.52;;;17.83;;
50225;SDS011;36113;50.742;6.432;2022-11-20T01:26:58;30.15;;;18.45;;
50225;SDS011;36113;50.742;6.432;2022-11-20T01:29:23;26.90;;;16.58;;
50225;SDS011;36113;50.742;6.432;2022-11-20T01:31:49;29.40;;;18.13;;
50225;SDS011;36113;50.742;6.432;2022-11-20T01:34:18;30.42;;;17.58;;
50225;SDS011;36113;50.742;6.432;2022-11-20T01:36:45;32.03;;;18.05;;
50225;SDS011;36113;50.742;6.432;2022-11-20T01:39:15;32.63;;;18.92;;
50225;SDS011;36113;50.742;6.432;2022-11-20T01:41:43;33.15;;;19.02;;
50225;SDS011;36113;50.742;6.432;2022-11-20T01:44:42;33.10;;;19.70;;
50225;SDS011;36113;50.742;6.432;2022-11-20T01:47:20;32.05;;;20.20;;
50225;SDS011;36113;50.742;6.432;2022-11-20T01:49:51;32.03;;;18.77;;
50225;SDS011;36113;50.742;6.432;2022-11-20T01:52:44;35.70;;;20.50;;
50225;SDS011;36113;50.742;6.432;2022-11-20T01:55:21;31.27;;;18.85;;
50225;SDS011;36113;50.742;6.432;2022-11-20T01:57:50;32.75;;;18.95;;
50225;SDS011;36113;50.742;6.432;2022-11-20T02:00:17;34.03;;;19.60;;
50225;SDS011;36113;50.742;6.432;2022-11-20T02:02:46;31.80;;;19.58;;
50225;SDS011;36113;50.742;6.432;2022-11-20T02:08:18;32.22;;;19.42;;
50225;SDS011;36113;50.742;6.432;2022-11-20T02:10:44;37.47;;;21.80;;
50225;SDS011;36113;50.742;6.432;2022-11-20T02:13:10;36.20;;;19.83;;
50225;SDS011;36113;50.742;6.432;2022-11-20T02:15:54;33.83;;;19.58;;
50225;SDS011;36113;50.742;6.432;2022-11-20T02:18:20;34.72;;;19.23;;
50225;SDS011;36113;50.742;6.432;2022-11-20T02:20:48;34.33;;;20.38;;
50225;SDS011;36113;50.742;6.432;2022-11-20T02:23:29;37.95;;;20.45;;
50225;SDS011;36113;50.742;6.432;2022-11-20T02:25:58;35.78;;;18.98;;
50225;SDS011;36113;50.742;6.432;2022-11-20T02:28:29;40.10;;;19.40;;
50225;SDS011;36113;50.742;6.432;2022-11-20T02:30:55;34.60;;;18.55;;
50225;SDS011;36113;50.742;6.432;2022-11-20T02:33:20;32.38;;;16.83;;
50225;SDS011;36113;50.742;6.432;2022-11-20T02:35:46;31.85;;;16.55;;
50225;SDS011;36113;50.742;6.432;2022-11-20T02:38:12;39.20;;;18.63;;
50225;SDS011;36113;50.742;6.432;2022-11-20T02:40:38;34.95;;;17.98;;
50225;SDS011;36113;50.742;6.432;2022-11-20T02:43:03;37.75;;;19.08;;
50225;SDS011;36113;50.742;6.432;2022-11-20T02:45:29;36.45;;;19.63;;
50225;SDS011;36113;50.742;6.432;2022-11-20T02:47:54;42.63;;;20.27;;
50225;SDS011;36113;50.742;6.432;2022-11-20T02:50:19;41.20;;;19.13;;
50225;SDS011;36113;50.742;6.432;2022-11-20T02:52:45;41.40;;;19.30;;
50225;SDS011;36113;50.742;6.432;2022-11-20T02:55:10;40.55;;;19.35;;
50225;SDS011;36113;50.742;6.432;2022-11-20T02:57:36;43.38;;;19.27;;
50225;SDS011;36113;50.742;6.432;2022-11-20T03:00:02;41.58;;;19.38;;
50225;SDS011;36113;50.742;6.432;2022-11-20T03:02:31;39.33;;;19.52;;
50225;SDS011;36113;50.742;6.432;2022-11-20T03:04:57;42.22;;;20.27;;
50225;SDS011;36113;50.742;6.432;2022-11-20T03:07:23;42.40;;;19.00;;
50225;SDS011;36113;50.742;6.432;2022-11-20T03:09:48;39.80;;;19.42;;
50225;SDS011;36113;50.742;6.432;2022-11-20T03:12:14;41.67;;;19.77;;
50225;SDS011;36113;50.742;6.432;2022-11-20T03:14:39;43.10;;;20.38;;
50225;SDS011;36113;50.742;6.432;2022-11-20T03:17:05;41.15;;;20.23;;
50225;SDS011;36113;50.742;6.432;2022-11-20T03:19:30;37.33;;;17.95;;
50225;SDS011;36113;50.742;6.432;2022-11-20T03:21:56;45.00;;;20.00;;
50225;SDS011;36113;50.742;6.432;2022-11-20T03:24:21;43.25;;;19.65;;
50225;SDS011;36113;50.742;6.432;2022-11-20T03:26:46;41.10;;;20.15;;
50225;SDS011;36113;50.742;6.432;2022-11-20T03:29:12;49.20;;;22.30;;
50225;SDS011;36113;50.742;6.432;2022-11-20T03:31:38;45.22;;;21.17;;
50225;SDS011;36113;50.742;6.432;2022-11-20T03:34:08;37.22;;;19.63;;
50225;SDS011;36113;50.742;6.432;2022-11-20T03:36:37;46.72;;;22.15;;
50225;SDS011;36113;50.742;6.432;2022-11-20T03:39:03;43.22;;;20.77;;
50225;SDS011;36113;50.742;6.432;2022-11-20T03:41:29;43.13;;;19.65;;
50225;SDS011;36113;50.742;6.432;2022-11-20T03:43:59;39.20;;;19.40;;
50225;SDS011;36113;50.742;6.432;2022-11-20T03:46:26;38.15;;;19.40;;
50225;SDS011;36113;50.742;6.432;2022-11-20T03:48:52;45.60;;;20.80;;
50225;SDS011;36113;50.742;6.432;2022-11-20T03:51:19;38.58;;;20.30;;
50225;SDS011;36113;50.742;6.432;2022-11-20T03:56:12;40.75;;;19.15;;
50225;SDS011;36113;50.742;6.432;2022-11-20T04:01:08;36.28;;;19.65;;
50225;SDS011;36113;50.742;6.432;2022-11-20T04:03:36;40.78;;;19.55;;
50225;SDS011;36113;50.742;6.432;2022-11-20T04:06:04;43.00;;;19.60;;
50225;SDS011;36113;50.742;6.432;2022-11-20T04:08:32;38.15;;;19.02;;
50225;SDS011;36113;50.742;6.432;2022-11-20T04:13:48;40.15;;;20.27;;
50225;SDS011;36113;50.742;6.432;2022-11-20T04:16:14;37.40;;;20.25;;
50225;SDS011;36113;50.742;6.432;2022-11-20T04:18:40;179.82;;;25.92;;
50225;SDS011;36113;50.742;6.432;2022-11-20T04:21:06;38.72;;;20.55;;
50225;SDS011;36113;50.742;6.432;2022-11-20T04:23:32;39.17;;;20.53;;
50225;SDS011;36113;50.742;6.432;2022-11-20T04:26:10;41.92;;;20.10;;
50225;SDS011;36113;50.742;6.432;2022-11-20T04:28:36;37.60;;;20.50;;
50225;SDS011;36113;50.742;6.432;2022-11-20T04:33:36;42.17;;;21.73;;
50225;SDS011;36113;50.742;6.432;2022-11-20T04:36:03;36.30;;;20.20;;
50225;SDS011;36113;50.742;6.432;2022-11-20T04:38:30;41.17;;;22.48;;
50225;SDS011;36113;50.742;6.432;2022-11-20T04:40:56;38.20;;;20.10;;
50225;SDS011;36113;50.742;6.432;2022-11-20T04:43:23;37.63;;;20.42;;
50225;SDS011;36113;50.742;6.432;2022-11-20T04:45:51;44.05;;;22.33;;
50225;SDS011;36113;50.742;6.432;2022-11-20T04:48:17;38.88;;;20.50;;
50225;SDS011;36113;50.742;6.432;2022-11-20T04:50:43;43.50;;;21.45;;
50225;SDS011;36113;50.742;6.432;2022-11-20T04:53:08;35.97;;;20.25;;
50225;SDS011;36113;50.742;6.432;2022-11-20T04:55:33;40.30;;;20.83;;
50225;SDS011;36113;50.742;6.432;2022-11-20T04:57:59;38.63;;;21.13;;
50225;SDS011;36113;50.742;6.432;2022-11-20T05:00:24;38.35;;;20.85;;
50225;SDS011;36113;50.742;6.432;2022-11-20T05:02:49;45.92;;;22.05;;
50225;SDS011;36113;50.742;6.432;2022-11-20T05:05:15;44.42;;;23.98;;
50225;SDS011;36113;50.742;6.432;2022-11-20T05:07:40;49.33;;;23.73;;
50225;SDS011;36113;50.742;6.432;2022-11-20T05:10:05;41.90;;;22.55;;
50225;SDS011;36113;50.742;6.432;2022-11-20T05:12:31;46.38;;;23.13;;
50225;SDS011;36113;50.742;6.432;2022-11-20T05:14:56;42.95;;;21.73;;
50225;SDS011;36113;50.742;6.432;2022-11-20T05:17:22;44.33;;;22.10;;
50225;SDS011;36113;50.742;6.432;2022-11-20T05:19:47;41.92;;;21.23;;
50225;SDS011;36113;50.742;6.432;2022-11-20T05:22:12;47.72;;;21.80;;
50225;SDS011;36113;50.742;6.432;2022-11-20T05:24:38;45.63;;;23.17;;
50225;SDS011;36113;50.742;6.432;2022-11-20T05:27:03;50.53;;;22.48;;
50225;SDS011;36113;50.742;6.432;2022-11-20T05:29:28;47.53;;;22.02;;
50225;SDS011;36113;50.742;6.432;2022-11-20T05:31:54;46.05;;;22.88;;
50225;SDS011;36113;50.742;6.432;2022-11-20T05:34:19;48.28;;;23.42;;
50225;SDS011;36113;50.742;6.432;2022-11-20T05:36:44;50.15;;;22.75;;
50225;SDS011;36113;50.742;6.432;2022-11-20T05:39:09;49.08;;;22.38;;
50225;SDS011;36113;50.742;6.432;2022-11-20T05:41:35;87.53;;;24.67;;
50225;SDS011;36113;50.742;6.432;2022-11-20T05:44:00;49.95;;;21.90;;
50225;SDS011;36113;50.742;6.432;2022-11-20T05:46:25;58.55;;;23.77;;
50225;SDS011;36113;50.742;6.432;2022-11-20T05:48:51;66.45;;;25.75;;
50225;SDS011;36113;50.742;6.432;2022-11-20T05:51:17;61.40;;;25.48;;
50225;SDS011;36113;50.742;6.432;2022-11-20T05:53:44;59.97;;;24.80;;
50225;SDS011;36113;50.742;6.432;2022-11-20T05:56:10;113.40;;;27.73;;
50225;SDS011;36113;50.742;6.432;2022-11-20T05:58:38;59.00;;;25.02;;
50225;SDS011;36113;50.742;6.432;2022-11-20T06:01:13;58.92;;;24.48;;
50225;SDS011;36113;50.742;6.432;2022-11-20T06:03:41;77.95;;;25.17;;
50225;SDS011;36113;50.742;6.432;2022-11-20T06:06:14;109.22;;;28.67;;
50225;SDS011;36113;50.742;6.432;2022-11-20T06:08:40;68.23;;;24.83;;
50225;SDS011;36113;50.742;6.432;2022-11-20T06:11:07;127.60;;;26.63;;
50225;SDS011;36113;50.742;6.432;2022-11-20T06:13:33;86.93;;;26.95;;
50225;SDS011;36113;50.742;6.432;2022-11-20T06:15:59;70.53;;;25.77;;
50225;SDS011;36113;50.742;6.432;2022-11-20T06:18:28;72.25;;;26.17;;
50225;SDS011;36113;50.742;6.432;2022-11-20T06:21:01;61.50;;;24.88;;
50225;SDS011;36113;50.742;6.432;2022-11-20T06:23:31;57.03;;;24.27;;
50225;SDS011;36113;50.742;6.432;2022-11-20T06:26:00;59.60;;;22.52;;
50225;SDS011;36113;50.742;6.432;2022-11-20T06:28:27;52.35;;;24.35;;
50225;SDS011;36113;50.742;6.432;2022-11-20T06:30:53;59.35;;;23.40;;
50225;SDS011;36113;50.742;6.432;2022-11-20T06:33:18;56.28;;;25.15;;
50225;SDS011;36113;50.742;6.432;2022-11-20T06:35:43;54.83;;;23.58;;
50225;SDS011;36113;50.742;6.432;2022-11-20T06:38:09;50.22;;;23.45;;
50225;SDS011;36113;50.742;6.432;2022-11-20T06:40:34;66.63;;;24.77;;
50225;SDS011;36113;50.742;6.432;2022-11-20T06:43:00;55.03;;;24.05;;
50225;SDS011;36113;50.742;6.432;2022-11-20T06:45:25;49.65;;;23.88;;
50225;SDS011;36113;50.742;6.432;2022-11-20T06:47:50;47.40;;;22.50;;
50225;SDS011;36113;50.742;6.432;2022-11-20T06:50:16;57.22;;;24.35;;
50225;SDS011;36113;50.742;6.432;2022-11-20T06:52:41;58.00;;;25.00;;
50225;SDS011;36113;50.742;6.432;2022-11-20T06:55:06;58.50;;;24.30;;
50225;SDS011;36113;50.742;6.432;2022-11-20T06:57:32;58.40;;;25.70;;
50225;SDS011;36113;50.742;6.432;2022-11-20T06:59:58;47.97;;;23.33;;
50225;SDS011;36113;50.742;6.432;2022-11-20T07:02:23;52.97;;;23.73;;
50225;SDS011;36113;50.742;6.432;2022-11-20T07:04:48;63.80;;;24.48;;
50225;SDS011;36113;50.742;6.432;2022-11-20T07:07:13;63.33;;;25.00;;
50225;SDS011;36113;50.742;6.432;2022-11-20T07:09:39;76.05;;;23.83;;
50225;SDS011;36113;50.742;6.432;2022-11-20T07:12:04;62.15;;;23.30;;
50225;SDS011;36113;50.742;6.432;2022-11-20T07:14:30;53.47;;;23.35;;
50225;SDS011;36113;50.742;6.432;2022-11-20T07:16:55;55.70;;;22.73;;
50225;SDS011;36113;50.742;6.432;2022-11-20T07:19:20;120.32;;;25.88;;
50225;SDS011;36113;50.742;6.432;2022-11-20T07:21:46;79.53;;;23.95;;
50225;SDS011;36113;50.742;6.432;2022-11-20T07:24:11;61.50;;;24.33;;
50225;SDS011;36113;50.742;6.432;2022-11-20T07:26:37;53.80;;;24.90;;
50225;SDS011;36113;50.742;6.432;2022-11-20T07:29:02;53.20;;;23.73;;
50225;SDS011;36113;50.742;6.432;2022-11-20T07:31:28;60.65;;;23.45;;
50225;SDS011;36113;50.742;6.432;2022-11-20T07:33:53;57.42;;;24.85;;
50225;SDS011;36113;50.742;6.432;2022-11-20T07:36:21;73.53;;;25.60;;
50225;SDS011;36113;50.742;6.432;2022-11-20T07:38:47;69.95;;;24.42;;
50225;SDS011;36113;50.742;6.432;2022-11-20T07:41:12;53.03;;;25.20;;
50225;SDS011;36113;50.742;6.432;2022-11-20T07:43:37;78.00;;;27.77;;
50225;SDS011;36113;50.742;6.432;2022-11-20T07:46:03;52.47;;;24.90;;
50225;SDS011;36113;50.742;6.432;2022-11-20T07:48:29;43.67;;;22.33;;
50225;SDS011;36113;50.742;6.432;2022-11-20T07:50:55;48.58;;;23.90;;
50225;SDS011;36113;50.742;6.432;2022-11-20T07:53:21;46.40;;;22.67;;
50225;SDS011;36113;50.742;6.432;2022-11-20T07:55:46;50.22;;;23.65;;
50225;SDS011;36113;50.742;6.432;2022-11-20T07:58:12;49.92;;;23.48;;
50225;SDS011;36113;50.742;6.432;2022-11-20T08:00:38;40.85;;;22.02;;
50225;SDS011;36113;50.742;6.432;2022-11-20T08:03:04;43.40;;;21.58;;
50225;SDS011;36113;50.742;6.432;2022-11-20T08:05:29;44.53;;;24.63;;
50225;SDS011;36113;50.742;6.432;2022-11-20T08:07:55;39.70;;;22.13;;
50225;SDS011;36113;50.742;6.432;2022-11-20T08:10:20;38.35;;;21.58;;
50225;SDS011;36113;50.742;6.432;2022-11-20T08:12:47;36.47;;;21.15;;
50225;SDS011;36113;50.742;6.432;2022-11-20T08:15:34;40.00;;;22.27;;
50225;SDS011;36113;50.742;6.432;2022-11-20T08:18:04;40.05;;;21.92;;
50225;SDS011;36113;50.742;6.432;2022-11-20T08:20:31;41.15;;;22.30;;
50225;SDS011;36113;50.742;6.432;2022-11-20T08:22:57;40.42;;;21.83;;
50225;SDS011;36113;50.742;6.432;2022-11-20T08:25:28;40.40;;;22.13;;
50225;SDS011;36113;50.742;6.432;2022-11-20T08:27:56;36.15;;;21.10;;
50225;SDS011;36113;50.742;6.432;2022-11-20T08:30:22;42.28;;;22.02;;
50225;SDS011;36113;50.742;6.432;2022-11-20T08:32:47;43.67;;;23.52;;
50225;SDS011;36113;50.742;6.432;2022-11-20T08:35:13;69.57;;;36.28;;
50225;SDS011;36113;50.742;6.432;2022-11-20T08:37:38;41.10;;;21.35;;
50225;SDS011;36113;50.742;6.432;2022-11-20T08:40:06;36.10;;;21.83;;
50225;SDS011;36113;50.742;6.432;2022-11-20T08:42:36;40.47;;;19.95;;
50225;SDS011;36113;50.742;6.432;2022-11-20T08:45:01;36.00;;;20.73;;
50225;SDS011;36113;50.742;6.432;2022-11-20T08:47:26;35.55;;;21.67;;
50225;SDS011;36113;50.742;6.432;2022-11-20T08:49:52;47.67;;;26.50;;
50225;SDS011;36113;50.742;6.432;2022-11-20T08:52:17;57.00;;;35.15;;
50225;SDS011;36113;50.742;6.432;2022-11-20T08:54:42;43.85;;;24.20;;
50225;SDS011;36113;50.742;6.432;2022-11-20T08:57:08;38.80;;;22.38;;
50225;SDS011;36113;50.742;6.432;2022-11-20T08:59:33;38.15;;;19.58;;
50225;SDS011;36113;50.742;6.432;2022-11-20T09:01:58;34.30;;;20.00;;
50225;SDS011;36113;50.742;6.432;2022-11-20T09:04:23;35.20;;;21.15;;
50225;SDS011;36113;50.742;6.432;2022-11-20T09:06:49;37.22;;;20.17;;
50225;SDS011;36113;50.742;6.432;2022-11-20T09:09:16;35.22;;;19.65;;
50225;SDS011;36113;50.742;6.432;2022-11-20T09:11:42;37.30;;;21.52;;
50225;SDS011;36113;50.742;6.432;2022-11-20T09:14:07;42.80;;;25.27;;
50225;SDS011;36113;50.742;6.432;2022-11-20T09:16:33;34.78;;;20.95;;
50225;SDS011;36113;50.742;6.432;2022-11-20T09:18:58;36.10;;;19.67;;
50225;SDS011;36113;50.742;6.432;2022-11-20T09:21:23;35.53;;;20.63;;
50225;SDS011;36113;50.742;6.432;2022-11-20T09:23:49;40.45;;;21.45;;
50225;SDS011;36113;50.742;6.432;2022-11-20T09:26:14;35.90;;;22.15;;
50225;SDS011;36113;50.742;6.432;2022-11-20T09:28:40;38.55;;;22.55;;
50225;SDS011;36113;50.742;6.432;2022-11-20T09:31:06;37.88;;;21.13;;
50225;SDS011;36113;50.742;6.432;2022-11-20T09:33:44;34.55;;;18.70;;
50225;SDS011;36113;50.742;6.432;2022-11-20T09:36:09;43.70;;;22.25;;
50225;SDS011;36113;50.742;6.432;2022-11-20T09:38:35;37.13;;;22.23;;
50225;SDS011;36113;50.742;6.432;2022-11-20T09:41:04;33.92;;;21.02;;
50225;SDS011;36113;50.742;6.432;2022-11-20T09:46:28;39.03;;;21.67;;
50225;SDS011;36113;50.742;6.432;2022-11-20T09:54:19;36.22;;;21.23;;
50225;SDS011;36113;50.742;6.432;2022-11-20T09:56:47;42.30;;;22.77;;
50225;SDS011;36113;50.742;6.432;2022-11-20T09:59:23;37.08;;;20.35;;
50225;SDS011;36113;50.742;6.432;2022-11-20T10:01:57;44.10;;;26.25;;
50225;SDS011;36113;50.742;6.432;2022-11-20T10:04:25;43.63;;;23.88;;
50225;SDS011;36113;50.742;6.432;2022-11-20T10:09:39;40.92;;;22.73;;
50225;SDS011;36113;50.742;6.432;2022-11-20T10:12:33;35.90;;;20.98;;
50225;SDS011;36113;50.742;6.432;2022-11-20T10:20:14;45.95;;;24.92;;
50225;SDS011;36113;50.742;6.432;2022-11-20T10:25:51;45.55;;;22.77;;
50225;SDS011;36113;50.742;6.432;2022-11-20T10:28:17;44.50;;;22.45;;
50225;SDS011;36113;50.742;6.432;2022-11-20T10:30:59;44.78;;;23.35;;
50225;SDS011;36113;50.742;6.432;2022-11-20T10:33:29;45.13;;;23.70;;
50225;SDS011;36113;50.742;6.432;2022-11-20T10:36:08;52.78;;;27.20;;
50225;SDS011;36113;50.742;6.432;2022-11-20T10:38:43;47.50;;;24.15;;
50225;SDS011;36113;50.742;6.432;2022-11-20T10:41:15;49.45;;;22.23;;
50225;SDS011;36113;50.742;6.432;2022-11-20T10:43:50;45.15;;;22.25;;
50225;SDS011;36113;50.742;6.432;2022-11-20T10:46:25;43.05;;;23.63;;
50225;SDS011;36113;50.742;6.432;2022-11-20T10:49:02;43.70;;;23.17;;
50225;SDS011;36113;50.742;6.432;2022-11-20T10:56:59;46.00;;;24.17;;
50225;SDS011;36113;50.742;6.432;2022-11-20T11:00:31;41.35;;;22.63;;
50225;SDS011;36113;50.742;6.432;2022-11-20T11:05:15;46.60;;;23.58;;
50225;SDS011;36113;50.742;6.432;2022-11-20T11:07:46;51.55;;;23.73;;
50225;SDS011;36113;50.742;6.432;2022-11-20T11:10:16;45.05;;;24.50;;
50225;SDS011;36113;50.742;6.432;2022-11-20T11:12:44;48.47;;;24.10;;
50225;SDS011;36113;50.742;6.432;2022-11-20T11:15:12;47.72;;;24.42;;
50225;SDS011;36113;50.742;6.432;2022-11-20T11:20:15;41.08;;;23.33;;
50225;SDS011;36113;50.742;6.432;2022-11-20T11:22:50;45.08;;;23.70;;
50225;SDS011;36113;50.742;6.432;2022-11-20T11:25:35;48.53;;;23.80;;
50225;SDS011;36113;50.742;6.432;2022-11-20T11:30:42;39.20;;;21.17;;
50225;SDS011;36113;50.742;6.432;2022-11-20T11:33:10;41.15;;;22.92;;
50225;SDS011;36113;50.742;6.432;2022-11-20T11:35:53;49.87;;;23.37;;
50225;SDS011;36113;50.742;6.432;2022-11-20T11:38:29;39.55;;;22.48;;
50225;SDS011;36113;50.742;6.432;2022-11-20T11:40:59;41.33;;;22.95;;
50225;SDS011;36113;50.742;6.432;2022-11-20T11:43:26;39.60;;;21.98;;
50225;SDS011;36113;50.742;6.432;2022-11-20T11:48:54;43.33;;;21.27;;
50225;SDS011;36113;50.742;6.432;2022-11-20T11:52:00;44.40;;;23.27;;
50225;SDS011;36113;50.742;6.432;2022-11-20T12:07:50;41.80;;;22.40;;
50225;SDS011;36113;50.742;6.432;2022-11-20T12:10:38;41.05;;;22.02;;
50225;SDS011;36113;50.742;6.432;2022-11-20T12:13:10;40.92;;;22.15;;
50225;SDS011;36113;50.742;6.432;2022-11-20T12:15:40;40.70;;;22.42;;
50225;SDS011;36113;50.742;6.432;2022-11-20T12:18:13;38.22;;;21.92;;
50225;SDS011;36113;50.742;6.432;2022-11-20T12:20:45;42.67;;;22.45;;
50225;SDS011;36113;50.742;6.432;2022-11-20T12:23:40;46.78;;;23.10;;
50225;SDS011;36113;50.742;6.432;2022-11-20T12:30:00;46.28;;;23.02;;
50225;SDS011;36113;50.742;6.432;2022-11-20T12:37:45;13.15;;;6.97;;
50225;SDS011;36113;50.742;6.432;2022-11-20T12:45:46;4.63;;;3.45;;
50225;SDS011;36113;50.742;6.432;2022-11-20T12:57:06;4.00;;;2.80;;
50225;SDS011;36113;50.742;6.432;2022-11-20T13:05:51;4.35;;;2.53;;
50225;SDS011;36113;50.742;6.432;2022-11-20T13:08:23;4.00;;;3.03;;
50225;SDS011;36113;50.742;6.432;2022-11-20T13:10:52;5.45;;;3.85;;
50225;SDS011;36113;50.742;6.432;2022-11-20T13:13:43;3.65;;;3.33;;
50225;SDS011;36113;50.742;6.432;2022-11-20T13:16:20;3.55;;;3.22;;
50225;SDS011;36113;50.742;6.432;2022-11-20T13:18:56;5.13;;;3.70;;
50225;SDS011;36113;50.742;6.432;2022-11-20T13:21:43;4.60;;;3.42;;
50225;SDS011;36113;50.742;6.432;2022-11-20T13:24:21;4.88;;;3.08;;
50225;SDS011;36113;50.742;6.432;2022-11-20T13:29:38;4.10;;;3.10;;
50225;SDS011;36113;50.742;6.432;2022-11-20T13:34:38;2.70;;;2.35;;
50225;SDS011;36113;50.742;6.432;2022-11-20T13:37:04;3.40;;;2.20;;
50225;SDS011;36113;50.742;6.432;2022-11-20T13:39:30;2.17;;;2.08;;
50225;SDS011;36113;50.742;6.432;2022-11-20T13:41:59;3.58;;;3.03;;
50225;SDS011;36113;50.742;6.432;2022-11-20T13:44:43;3.45;;;2.00;;
50225;SDS011;36113;50.742;6.432;2022-11-20T13:47:46;2.75;;;2.30;;
50225;SDS011;36113;50.742;6.432;2022-11-20T13:50:13;3.35;;;2.05;;
50225;SDS011;36113;50.742;6.432;2022-11-20T13:52:47;2.60;;;2.40;;
50225;SDS011;36113;50.742;6.432;2022-11-20T13:55:18;9.50;;;2.58;;
50225;SDS011;36113;50.742;6.432;2022-11-20T14:00:44;3.45;;;3.10;;
50225;SDS011;36113;50.742;6.432;2022-11-20T14:05:51;3.05;;;2.10;;
50225;SDS011;36113;50.742;6.432;2022-11-20T14:11:14;9.00;;;3.45;;
50225;SDS011;36113;50.742;6.432;2022-11-20T14:13:55;6.07;;;4.40;;
50225;SDS011;36113;50.742;6.432;2022-11-20T14:16:39;10.15;;;8.57;;
50225;SDS011;36113;50.742;6.432;2022-11-20T14:21:48;4.30;;;3.05;;
50225;SDS011;36113;50.742;6.432;2022-11-20T14:24:21;21.77;;;13.57;;
50225;SDS011;36113;50.742;6.432;2022-11-20T14:26:48;6.07;;;2.40;;
50225;SDS011;36113;50.742;6.432;2022-11-20T14:29:15;7.43;;;3.97;;
50225;SDS011;36113;50.742;6.432;2022-11-20T14:31:42;4.95;;;2.50;;
50225;SDS011;36113;50.742;6.432;2022-11-20T14:34:16;2.63;;;1.63;;
50225;SDS011;36113;50.742;6.432;2022-11-20T14:36:44;1.75;;;1.65;;
50225;SDS011;36113;50.742;6.432;2022-11-20T14:39:10;2.42;;;2.22;;
50225;SDS011;36113;50.742;6.432;2022-11-20T14:41:50;2.17;;;1.83;;
50225;SDS011;36113;50.742;6.432;2022-11-20T14:44:23;1.33;;;1.20;;
50225;SDS011;36113;50.742;6.432;2022-11-20T14:46:58;2.05;;;1.00;;
50225;SDS011;36113;50.742;6.432;2022-11-20T14:49:26;1.98;;;1.27;;
50225;SDS011;36113;50.742;6.432;2022-11-20T14:52:00;5.38;;;4.88;;
50225;SDS011;36113;50.742;6.432;2022-11-20T14:54:34;7.25;;;6.45;;
50225;SDS011;36113;50.742;6.432;2022-11-20T14:57:18;4.63;;;3.67;;
50225;SDS011;36113;50.742;6.432;2022-11-20T14:59:51;3.75;;;2.65;;
50225;SDS011;36113;50.742;6.432;2022-11-20T15:02:29;3.25;;;2.95;;
50225;SDS011;36113;50.742;6.432;2022-11-20T15:04:58;2.85;;;2.65;;
50225;SDS011;36113;50.742;6.432;2022-11-20T15:07:25;4.13;;;2.30;;
50225;SDS011;36113;50.742;6.432;2022-11-20T15:10:03;2.45;;;1.70;;
50225;SDS011;36113;50.742;6.432;2022-11-20T15:12:31;3.78;;;1.75;;
50225;SDS011;36113;50.742;6.432;2022-11-20T15:14:58;2.47;;;2.22;;
50225;SDS011;36113;50.742;6.432;2022-11-20T15:17:25;2.95;;;2.67;;
50225;SDS011;36113;50.742;6.432;2022-11-20T15:19:51;2.95;;;2.45;;
50225;SDS011;36113;50.742;6.432;2022-11-20T15:22:17;5.70;;;3.67;;
50225;SDS011;36113;50.742;6.432;2022-11-20T15:24:42;3.58;;;2.60;;
50225;SDS011;36113;50.742;6.432;2022-11-20T15:27:08;3.63;;;2.75;;
50225;SDS011;36113;50.742;6.432;2022-11-20T15:29:35;5.03;;;3.10;;
50225;SDS011;36113;50.742;6.432;2022-11-20T15:32:00;5.00;;;3.05;;
50225;SDS011;36113;50.742;6.432;2022-11-20T15:34:26;7.72;;;3.58;;
50225;SDS011;36113;50.742;6.432;2022-11-20T15:36:52;7.32;;;3.42;;
50225;SDS011;36113;50.742;6.432;2022-11-20T15:39:18;7.57;;;6.80;;
50225;SDS011;36113;50.742;6.432;2022-11-20T15:41:43;7.55;;;5.88;;
50225;SDS011;36113;50.742;6.432;2022-11-20T15:44:09;10.57;;;7.38;;
50225;SDS011;36113;50.742;6.432;2022-11-20T15:46:37;9.68;;;7.38;;
50225;SDS011;36113;50.742;6.432;2022-11-20T15:49:10;7.72;;;4.63;;
50225;SDS011;36113;50.742;6.432;2022-11-20T15:51:38;3.97;;;3.40;;
50225;SDS011;36113;50.742;6.432;2022-11-20T15:56:39;6.32;;;5.28;;
50225;SDS011;36113;50.742;6.432;2022-11-20T15:59:05;6.97;;;4.97;;
50225;SDS011;36113;50.742;6.432;2022-11-20T16:01:30;5.47;;;4.22;;
50225;SDS011;36113;50.742;6.432;2022-11-20T16:03:56;11.45;;;7.25;;
50225;SDS011;36113;50.742;6.432;2022-11-20T16:06:21;6.25;;;4.60;;
50225;SDS011;36113;50.742;6.432;2022-11-20T16:08:47;5.93;;;4.40;;
50225;SDS011;36113;50.742;6.432;2022-11-20T16:11:13;14.77;;;10.70;;
50225;SDS011;36113;50.742;6.432;2022-11-20T16:13:40;5.57;;;5.03;;
50225;SDS011;36113;50.742;6.432;2022-11-20T16:16:25;6.35;;;2.90;;
50225;SDS011;36113;50.742;6.432;2022-11-20T16:18:55;3.03;;;2.78;;
50225;SDS011;36113;50.742;6.432;2022-11-20T16:21:20;4.38;;;3.97;;
50225;SDS011;36113;50.742;6.432;2022-11-20T16:23:46;3.80;;;3.22;;
50225;SDS011;36113;50.742;6.432;2022-11-20T16:26:12;4.97;;;4.00;;
50225;SDS011;36113;50.742;6.432;2022-11-20T16:28:39;4.35;;;2.80;;